BZF weather

Benton Field
Redding, California, United States

Public forecast

Using degrees Fahrenheit for public forecast. Weather courtesy of forecast.io.

Closest aviation weather report (METAR) to Benton Field

Closest report is Redding Municipal Airport, 6.6 nm (12.2 km) SE. Retrieved 2019/10/23 21:53 UTC (13 minutes ago):

KRDD 232153Z 01023G32KT 10SM CLR 29/M06 A3003 RMK AO2 PK WND 02034/2058 SLP164 T02941061

Closest aviation forecast (TAF) to Benton Field

Closest forecast is Redding Municipal Airport, 6.6 nm (12.2 km) SE. Retrieved 2019/10/23 18:30 UTC (4 hours ago):

TAF KRDD 231727Z 2318/2418 36025G33KT P6SM SKC FM240300 36016G23KT P6SM SKC